Destinations Eilat-Ramon Airport

Eilat-Ramon Airport (LLER / ETM)

Flights to Eilat-Ramon Airport

Flight number From ETE Dispatch
SPY-608 EHGG Groningen Airport Eelde 04:40

Flights from Eilat-Ramon Airport

Flight number To ETE Dispatch
SPY-609 EHGG Groningen Airport Eelde
About

Eilat-Ramon Airport facts

Eilat-Ramon Airport is located in Eilat at an elevation of 87.8 meters or 288 feet.

Currently, Speedy Airlines serves 2 flights to and from Eilat-Ramon Airport.

Detailed airport info

Route map

Weather

Current weather

METAR

METAR

Metar data retrieved Sunday, 21 July 2024 at 20:25 UTC

LLER 211950Z 36016KT CAVOK 37/14 Q1005
Wind Temperature
16 kt 37c